sensor_id;sensor_type;location;lat;lon;timestamp;pressure;altitude;pressure_sealevel;temperature;humidity
7824;BME280;3957;48.61947800;9.05303100;2022-09-09T04:00:24;95763.81;;;11.40;100.00
7824;BME280;3957;48.61947800;9.05303100;2022-09-09T04:01:48;95763.59;;;11.42;100.00
7824;BME280;3957;48.61947800;9.05303100;2022-09-09T04:03:09;95772.06;;;11.38;100.00
7824;BME280;3957;48.61947800;9.05303100;2022-09-09T04:04:30;95769.63;;;11.30;100.00
7824;BME280;3957;48.61947800;9.05303100;2022-09-09T04:05:52;95760.97;;;11.28;100.00
7824;BME280;3957;48.61947800;9.05303100;2022-09-09T04:07:13;95755.44;;;11.30;100.00
7824;BME280;3957;48.61947800;9.05303100;2022-09-09T04:08:34;95755.84;;;11.27;100.00
7824;BME280;3957;48.61947800;9.05303100;2022-09-09T04:09:56;95758.53;;;11.27;100.00
7824;BME280;3957;48.61947800;9.05303100;2022-09-09T04:11:18;95757.50;;;11.28;100.00
7824;BME280;3957;48.61947800;9.05303100;2022-09-09T04:12:40;95759.16;;;11.29;100.00
7824;BME280;3957;48.61947800;9.05303100;2022-09-09T04:14:01;95760.56;;;11.31;100.00
7824;BME280;3957;48.61947800;9.05303100;2022-09-09T04:15:24;95767.94;;;11.36;100.00
7824;BME280;3957;48.61947800;9.05303100;2022-09-09T04:16:45;95768.34;;;11.39;100.00
7824;BME280;3957;48.61947800;9.05303100;2022-09-09T04:18:06;95774.91;;;11.44;100.00
7824;BME280;3957;48.61947800;9.05303100;2022-09-09T04:19:27;95771.34;;;11.50;100.00
7824;BME280;3957;48.61947800;9.05303100;2022-09-09T04:20:48;95776.91;;;11.55;100.00
7824;BME280;3957;48.61947800;9.05303100;2022-09-09T04:22:12;95769.66;;;11.55;100.00
7824;BME280;3957;48.61947800;9.05303100;2022-09-09T04:23:33;95766.13;;;11.62;100.00
7824;BME280;3957;48.61947800;9.05303100;2022-09-09T04:24:54;95777.84;;;11.67;100.00
7824;BME280;3957;48.61947800;9.05303100;2022-09-09T04:26:16;95770.16;;;11.71;100.00
7824;BME280;3957;48.61947800;9.05303100;2022-09-09T04:27:38;95774.66;;;11.77;100.00
7824;BME280;3957;48.61947800;9.05303100;2022-09-09T04:29:00;95775.84;;;11.81;100.00
7824;BME280;3957;48.61947800;9.05303100;2022-09-09T04:30:23;95772.38;;;11.81;100.00
7824;BME280;3957;48.61947800;9.05303100;2022-09-09T04:31:44;95777.72;;;11.81;100.00
7824;BME280;3957;48.61947800;9.05303100;2022-09-09T04:33:05;95774.81;;;11.82;100.00
7824;BME280;3957;48.61947800;9.05303100;2022-09-09T04:34:26;95777.72;;;11.81;100.00
7824;BME280;3957;48.61947800;9.05303100;2022-09-09T04:35:49;95775.25;;;11.79;100.00
7824;BME280;3957;48.61947800;9.05303100;2022-09-09T04:37:12;95770.78;;;11.73;100.00
7824;BME280;3957;48.61947800;9.05303100;2022-09-09T04:38:33;95773.06;;;11.69;100.00
7824;BME280;3957;48.61947800;9.05303100;2022-09-09T04:39:55;95778.06;;;11.66;100.00
7824;BME280;3957;48.61947800;9.05303100;2022-09-09T04:41:16;95774.53;;;11.65;100.00
7824;BME280;3957;48.61947800;9.05303100;2022-09-09T04:42:38;95771.44;;;11.68;100.00
7824;BME280;3957;48.61947800;9.05303100;2022-09-09T04:44:00;95771.81;;;11.72;100.00
7824;BME280;3957;48.61947800;9.05303100;2022-09-09T04:45:21;95771.59;;;11.73;100.00
7824;BME280;3957;48.61947800;9.05303100;2022-09-09T04:46:42;95776.91;;;11.80;100.00
7824;BME280;3957;48.61947800;9.05303100;2022-09-09T04:48:04;95771.31;;;11.82;100.00
7824;BME280;3957;48.61947800;9.05303100;2022-09-09T04:49:25;95777.06;;;11.85;100.00
7824;BME280;3957;48.61947800;9.05303100;2022-09-09T04:50:57;95777.66;;;11.87;100.00
7824;BME280;3957;48.61947800;9.05303100;2022-09-09T04:52:18;95774.75;;;11.89;100.00
7824;BME280;3957;48.61947800;9.05303100;2022-09-09T04:53:39;95774.38;;;11.85;100.00
7824;BME280;3957;48.61947800;9.05303100;2022-09-09T04:55:01;95775.63;;;11.83;100.00
7824;BME280;3957;48.61947800;9.05303100;2022-09-09T04:56:22;95767.00;;;11.81;100.00
7824;BME280;3957;48.61947800;9.05303100;2022-09-09T04:57:49;95773.56;;;11.85;100.00
7824;BME280;3957;48.61947800;9.05303100;2022-09-09T04:59:09;95781.00;;;11.83;100.00
7824;BME280;3957;48.61947800;9.05303100;2022-09-09T05:00:37;95774.59;;;11.84;100.00
7824;BME280;3957;48.61947800;9.05303100;2022-09-09T05:02:00;95781.00;;;11.83;100.00
7824;BME280;3957;48.61947800;9.05303100;2022-09-09T05:03:23;95782.03;;;11.82;100.00
7824;BME280;3957;48.61947800;9.05303100;2022-09-09T05:04:44;95779.34;;;11.82;100.00
7824;BME280;3957;48.61947800;9.05303100;2022-09-09T05:06:07;95786.38;;;11.83;100.00
7824;BME280;3957;48.61947800;9.05303100;2022-09-09T05:07:29;95789.03;;;11.83;100.00
7824;BME280;3957;48.61947800;9.05303100;2022-09-09T05:08:52;95788.00;;;11.84;100.00
7824;BME280;3957;48.61947800;9.05303100;2022-09-09T05:10:18;95790.03;;;11.88;100.00
7824;BME280;3957;48.61947800;9.05303100;2022-09-09T05:11:40;95785.88;;;11.93;100.00
7824;BME280;3957;48.61947800;9.05303100;2022-09-09T05:13:06;95792.47;;;11.97;100.00
7824;BME280;3957;48.61947800;9.05303100;2022-09-09T05:14:27;95792.00;;;12.00;100.00
7824;BME280;3957;48.61947800;9.05303100;2022-09-09T05:15:53;95798.97;;;12.07;100.00
7824;BME280;3957;48.61947800;9.05303100;2022-09-09T05:17:13;95794.63;;;12.06;100.00
7824;BME280;3957;48.61947800;9.05303100;2022-09-09T05:18:35;95788.25;;;12.07;100.00
7824;BME280;3957;48.61947800;9.05303100;2022-09-09T05:19:56;95784.31;;;12.10;100.00
7824;BME280;3957;48.61947800;9.05303100;2022-09-09T05:21:18;95788.53;;;12.18;100.00
7824;BME280;3957;48.61947800;9.05303100;2022-09-09T05:22:39;95783.97;;;12.25;100.00
7824;BME280;3957;48.61947800;9.05303100;2022-09-09T05:24:01;95787.97;;;12.34;100.00
7824;BME280;3957;48.61947800;9.05303100;2022-09-09T05:25:22;95789.56;;;12.42;100.00
7824;BME280;3957;48.61947800;9.05303100;2022-09-09T05:26:47;95789.94;;;12.46;100.00
7824;BME280;3957;48.61947800;9.05303100;2022-09-09T05:28:09;95793.38;;;12.53;100.00
7824;BME280;3957;48.61947800;9.05303100;2022-09-09T05:29:30;95796.19;;;12.58;100.00
7824;BME280;3957;48.61947800;9.05303100;2022-09-09T05:31:02;95801.13;;;12.61;100.00
7824;BME280;3957;48.61947800;9.05303100;2022-09-09T05:32:29;95801.72;;;12.63;100.00
7824;BME280;3957;48.61947800;9.05303100;2022-09-09T05:33:54;95801.25;;;12.66;100.00
7824;BME280;3957;48.61947800;9.05303100;2022-09-09T05:35:15;95804.63;;;12.62;100.00
7824;BME280;3957;48.61947800;9.05303100;2022-09-09T05:36:36;95807.69;;;12.65;100.00
7824;BME280;3957;48.61947800;9.05303100;2022-09-09T05:37:59;95801.25;;;12.66;100.00
7824;BME280;3957;48.61947800;9.05303100;2022-09-09T05:39:20;95804.47;;;12.75;100.00
7824;BME280;3957;48.61947800;9.05303100;2022-09-09T05:40:47;95801.56;;;12.76;100.00
7824;BME280;3957;48.61947800;9.05303100;2022-09-09T05:42:09;95806.47;;;12.80;100.00
7824;BME280;3957;48.61947800;9.05303100;2022-09-09T05:43:30;95805.44;;;12.81;100.00
7824;BME280;3957;48.61947800;9.05303100;2022-09-09T05:44:52;95804.63;;;12.80;100.00
7824;BME280;3957;48.61947800;9.05303100;2022-09-09T05:46:19;95804.97;;;12.84;100.00
7824;BME280;3957;48.61947800;9.05303100;2022-09-09T05:47:41;95809.91;;;12.87;100.00
7824;BME280;3957;48.61947800;9.05303100;2022-09-09T05:49:05;95806.97;;;12.88;100.00
7824;BME280;3957;48.61947800;9.05303100;2022-09-09T05:50:27;95807.91;;;12.82;100.00
7824;BME280;3957;48.61947800;9.05303100;2022-09-09T05:51:49;95810.00;;;12.80;100.00
7824;BME280;3957;48.61947800;9.05303100;2022-09-09T05:53:12;95808.50;;;12.84;100.00
7824;BME280;3957;48.61947800;9.05303100;2022-09-09T05:54:33;95807.22;;;12.87;100.00
7824;BME280;3957;48.61947800;9.05303100;2022-09-09T05:56:04;95801.84;;;12.87;100.00
7824;BME280;3957;48.61947800;9.05303100;2022-09-09T05:57:28;95808.63;;;12.89;100.00
7824;BME280;3957;48.61947800;9.05303100;2022-09-09T05:58:49;95797.22;;;12.94;100.00
7824;BME280;3957;48.61947800;9.05303100;2022-09-09T06:00:12;95805.88;;;12.96;100.00
7824;BME280;3957;48.61947800;9.05303100;2022-09-09T06:01:37;95806.81;;;13.02;100.00
7824;BME280;3957;48.61947800;9.05303100;2022-09-09T06:03:02;95799.72;;;13.07;100.00
7824;BME280;3957;48.61947800;9.05303100;2022-09-09T06:04:24;95790.78;;;13.14;100.00
7824;BME280;3957;48.61947800;9.05303100;2022-09-09T06:05:45;95796.41;;;13.24;100.00
7824;BME280;3957;48.61947800;9.05303100;2022-09-09T06:07:06;95808.81;;;13.25;100.00
7824;BME280;3957;48.61947800;9.05303100;2022-09-09T06:08:27;95800.88;;;13.30;100.00
7824;BME280;3957;48.61947800;9.05303100;2022-09-09T06:09:48;95809.53;;;13.32;100.00
7824;BME280;3957;48.61947800;9.05303100;2022-09-09T06:11:12;95808.72;;;13.32;100.00
7824;BME280;3957;48.61947800;9.05303100;2022-09-09T06:12:34;95802.97;;;13.28;100.00
7824;BME280;3957;48.61947800;9.05303100;2022-09-09T06:13:56;95808.13;;;13.30;100.00
7824;BME280;3957;48.61947800;9.05303100;2022-09-09T06:15:18;95808.34;;;13.28;100.00
7824;BME280;3957;48.61947800;9.05303100;2022-09-09T06:16:39;95806.03;;;13.32;100.00
7824;BME280;3957;48.61947800;9.05303100;2022-09-09T06:18:09;95795.28;;;13.32;100.00
7824;BME280;3957;48.61947800;9.05303100;2022-09-09T06:19:29;95815.31;;;13.36;100.00
7824;BME280;3957;48.61947800;9.05303100;2022-09-09T06:20:57;95807.59;;;13.39;100.00
7824;BME280;3957;48.61947800;9.05303100;2022-09-09T06:22:18;95807.97;;;13.43;100.00
7824;BME280;3957;48.61947800;9.05303100;2022-09-09T06:23:39;95803.53;;;13.49;100.00
7824;BME280;3957;48.61947800;9.05303100;2022-09-09T06:25:01;95810.25;;;13.58;100.00
7824;BME280;3957;48.61947800;9.05303100;2022-09-09T06:26:24;95806.63;;;13.64;100.00
7824;BME280;3957;48.61947800;9.05303100;2022-09-09T06:27:49;95813.53;;;13.72;100.00
7824;BME280;3957;48.61947800;9.05303100;2022-09-09T06:29:11;95808.63;;;13.69;100.00
7824;BME280;3957;48.61947800;9.05303100;2022-09-09T06:30:31;95814.59;;;13.71;100.00
7824;BME280;3957;48.61947800;9.05303100;2022-09-09T06:31:52;95804.91;;;13.82;100.00
7824;BME280;3957;48.61947800;9.05303100;2022-09-09T06:33:18;95802.47;;;13.92;100.00
7824;BME280;3957;48.61947800;9.05303100;2022-09-09T06:34:39;95798.38;;;14.01;100.00
7824;BME280;3957;48.61947800;9.05303100;2022-09-09T06:36:03;95804.59;;;14.14;100.00
7824;BME280;3957;48.61947800;9.05303100;2022-09-09T06:37:24;95803.06;;;14.18;100.00
7824;BME280;3957;48.61947800;9.05303100;2022-09-09T06:38:47;95798.38;;;14.25;100.00
7824;BME280;3957;48.61947800;9.05303100;2022-09-09T06:40:09;95804.69;;;14.31;100.00
7824;BME280;3957;48.61947800;9.05303100;2022-09-09T06:41:31;95808.81;;;14.45;100.00
7824;BME280;3957;48.61947800;9.05303100;2022-09-09T06:42:59;95802.84;;;14.55;100.00
7824;BME280;3957;48.61947800;9.05303100;2022-09-09T06:44:34;95811.28;;;14.58;99.17
7824;BME280;3957;48.61947800;9.05303100;2022-09-09T06:45:56;95803.19;;;14.58;98.72
7824;BME280;3957;48.61947800;9.05303100;2022-09-09T06:47:18;95800.81;;;14.62;98.37
7824;BME280;3957;48.61947800;9.05303100;2022-09-09T06:48:39;95805.56;;;14.67;97.95
7824;BME280;3957;48.61947800;9.05303100;2022-09-09T06:50:05;95803.97;;;14.83;98.13
7824;BME280;3957;48.61947800;9.05303100;2022-09-09T06:51:30;95810.59;;;15.04;97.16
7824;BME280;3957;48.61947800;9.05303100;2022-09-09T06:52:51;95806.59;;;15.18;95.95
7824;BME280;3957;48.61947800;9.05303100;2022-09-09T06:54:12;95808.25;;;15.07;94.02
7824;BME280;3957;48.61947800;9.05303100;2022-09-09T06:55:36;95801.44;;;15.17;94.67
7824;BME280;3957;48.61947800;9.05303100;2022-09-09T06:56:58;95798.94;;;15.27;94.82
7824;BME280;3957;48.61947800;9.05303100;2022-09-09T06:58:20;95805.97;;;15.28;94.09
7824;BME280;3957;48.61947800;9.05303100;2022-09-09T06:59:45;95804.22;;;15.22;93.38
7824;BME280;3957;48.61947800;9.05303100;2022-09-09T07:01:06;95810.31;;;15.29;92.96
7824;BME280;3957;48.61947800;9.05303100;2022-09-09T07:02:28;95816.63;;;15.23;93.28
7824;BME280;3957;48.61947800;9.05303100;2022-09-09T07:03:51;95813.00;;;15.29;93.40
7824;BME280;3957;48.61947800;9.05303100;2022-09-09T07:05:12;95823.84;;;15.34;93.42
7824;BME280;3957;48.61947800;9.05303100;2022-09-09T07:06:37;95819.88;;;15.37;91.21
7824;BME280;3957;48.61947800;9.05303100;2022-09-09T07:07:59;95831.94;;;15.34;91.79
7824;BME280;3957;48.61947800;9.05303100;2022-09-09T07:09:20;95817.03;;;15.43;92.44
7824;BME280;3957;48.61947800;9.05303100;2022-09-09T07:10:43;95827.03;;;15.60;91.04
7824;BME280;3957;48.61947800;9.05303100;2022-09-09T07:12:04;95822.50;;;15.77;90.88
7824;BME280;3957;48.61947800;9.05303100;2022-09-09T07:13:28;95820.03;;;16.05;90.32
7824;BME280;3957;48.61947800;9.05303100;2022-09-09T07:14:50;95818.88;;;16.18;89.71
7824;BME280;3957;48.61947800;9.05303100;2022-09-09T07:16:14;95820.09;;;16.10;89.72
7824;BME280;3957;48.61947800;9.05303100;2022-09-09T07:17:35;95822.88;;;16.32;88.90
7824;BME280;3957;48.61947800;9.05303100;2022-09-09T07:18:56;95825.50;;;16.10;87.24
7824;BME280;3957;48.61947800;9.05303100;2022-09-09T07:20:18;95823.78;;;16.04;88.11
7824;BME280;3957;48.61947800;9.05303100;2022-09-09T07:21:40;95828.28;;;15.98;88.54
7824;BME280;3957;48.61947800;9.05303100;2022-09-09T07:23:02;95829.44;;;16.02;87.89
7824;BME280;3957;48.61947800;9.05303100;2022-09-09T07:24:23;95823.03;;;16.08;88.87
7824;BME280;3957;48.61947800;9.05303100;2022-09-09T07:25:45;95828.09;;;16.39;89.55
7824;BME280;3957;48.61947800;9.05303100;2022-09-09T07:27:10;95815.16;;;16.58;87.28
7824;BME280;3957;48.61947800;9.05303100;2022-09-09T07:28:31;95812.94;;;16.94;84.48
7824;BME280;3957;48.61947800;9.05303100;2022-09-09T07:29:51;95812.16;;;16.93;83.00
7824;BME280;3957;48.61947800;9.05303100;2022-09-09T07:31:25;95822.38;;;16.52;83.25
7824;BME280;3957;48.61947800;9.05303100;2022-09-09T07:32:51;95816.72;;;16.93;82.97
7824;BME280;3957;48.61947800;9.05303100;2022-09-09T07:34:11;95819.94;;;17.12;80.72
7824;BME280;3957;48.61947800;9.05303100;2022-09-09T07:35:33;95821.81;;;17.11;81.48
7824;BME280;3957;48.61947800;9.05303100;2022-09-09T07:36:54;95822.16;;;17.42;80.48
7824;BME280;3957;48.61947800;9.05303100;2022-09-09T07:38:19;95823.22;;;17.41;78.91
7824;BME280;3957;48.61947800;9.05303100;2022-09-09T07:39:40;95826.63;;;17.31;78.41
7824;BME280;3957;48.61947800;9.05303100;2022-09-09T07:41:06;95832.31;;;17.30;80.21
7824;BME280;3957;48.61947800;9.05303100;2022-09-09T07:42:29;95826.50;;;17.43;79.72
7824;BME280;3957;48.61947800;9.05303100;2022-09-09T07:43:51;95830.63;;;17.73;76.44
7824;BME280;3957;48.61947800;9.05303100;2022-09-09T07:45:14;95834.41;;;17.72;77.64
7824;BME280;3957;48.61947800;9.05303100;2022-09-09T07:46:36;95838.75;;;17.51;76.68
7824;BME280;3957;48.61947800;9.05303100;2022-09-09T07:47:56;95843.94;;;17.53;78.34
7824;BME280;3957;48.61947800;9.05303100;2022-09-09T07:49:17;95839.47;;;17.41;77.42
7824;BME280;3957;48.61947800;9.05303100;2022-09-09T07:50:39;95834.66;;;17.21;78.44
7824;BME280;3957;48.61947800;9.05303100;2022-09-09T07:52:00;95833.06;;;17.03;79.79
7824;BME280;3957;48.61947800;9.05303100;2022-09-09T07:53:23;95843.34;;;16.84;80.57
7824;BME280;3957;48.61947800;9.05303100;2022-09-09T07:54:44;95832.28;;;16.46;81.96
7824;BME280;3957;48.61947800;9.05303100;2022-09-09T07:56:09;95839.97;;;16.38;84.30
7824;BME280;3957;48.61947800;9.05303100;2022-09-09T07:57:30;95847.81;;;16.22;85.70
7824;BME280;3957;48.61947800;9.05303100;2022-09-09T07:58:53;95843.81;;;16.25;85.06
7824;BME280;3957;48.61947800;9.05303100;2022-09-09T08:00:14;95848.72;;;16.28;86.47
7824;BME280;3957;48.61947800;9.05303100;2022-09-09T08:01:48;95845.09;;;16.56;85.42
7824;BME280;3957;48.61947800;9.05303100;2022-09-09T08:03:14;95840.97;;;16.71;83.99
7824;BME280;3957;48.61947800;9.05303100;2022-09-09T08:04:35;95839.31;;;16.87;82.98
7824;BME280;3957;48.61947800;9.05303100;2022-09-09T08:06:00;95840.78;;;16.94;83.11
7824;BME280;3957;48.61947800;9.05303100;2022-09-09T08:07:22;95838.66;;;16.96;81.29
7824;BME280;3957;48.61947800;9.05303100;2022-09-09T08:08:51;95846.72;;;16.74;81.93
7824;BME280;3957;48.61947800;9.05303100;2022-09-09T08:10:12;95843.94;;;16.69;83.51
7824;BME280;3957;48.61947800;9.05303100;2022-09-09T08:11:36;95844.34;;;16.61;84.65
7824;BME280;3957;48.61947800;9.05303100;2022-09-09T08:12:57;95850.16;;;16.70;84.98
7824;BME280;3957;48.61947800;9.05303100;2022-09-09T08:14:18;95859.41;;;16.91;83.72
7824;BME280;3957;48.61947800;9.05303100;2022-09-09T08:15:40;95851.75;;;17.05;83.87
7824;BME280;3957;48.61947800;9.05303100;2022-09-09T08:17:02;95857.66;;;17.24;82.57
7824;BME280;3957;48.61947800;9.05303100;2022-09-09T08:18:26;95852.00;;;17.47;84.03
7824;BME280;3957;48.61947800;9.05303100;2022-09-09T08:19:47;95853.22;;;17.89;82.74
7824;BME280;3957;48.61947800;9.05303100;2022-09-09T08:21:15;95852.28;;;18.00;79.91
7824;BME280;3957;48.61947800;9.05303100;2022-09-09T08:22:38;95854.44;;;17.98;77.20
7824;BME280;3957;48.61947800;9.05303100;2022-09-09T08:24:00;95854.22;;;18.05;78.01
7824;BME280;3957;48.61947800;9.05303100;2022-09-09T08:25:21;95861.97;;;18.24;77.54
7824;BME280;3957;48.61947800;9.05303100;2022-09-09T08:26:44;95861.22;;;18.01;76.41
7824;BME280;3957;48.61947800;9.05303100;2022-09-09T08:28:06;95858.91;;;18.15;77.61
7824;BME280;3957;48.61947800;9.05303100;2022-09-09T08:29:27;95850.19;;;18.08;74.27
7824;BME280;3957;48.61947800;9.05303100;2022-09-09T08:30:49;95848.81;;;18.05;77.09
7824;BME280;3957;48.61947800;9.05303100;2022-09-09T08:32:10;95846.44;;;18.14;76.81
7824;BME280;3957;48.61947800;9.05303100;2022-09-09T08:33:32;95854.91;;;18.23;76.92
7824;BME280;3957;48.61947800;9.05303100;2022-09-09T08:34:54;95855.50;;;17.97;76.80
7824;BME280;3957;48.61947800;9.05303100;2022-09-09T08:36:18;95853.53;;;17.65;76.08
7824;BME280;3957;48.61947800;9.05303100;2022-09-09T08:37:39;95863.31;;;17.72;76.70
7824;BME280;3957;48.61947800;9.05303100;2022-09-09T08:39:01;95860.16;;;17.80;76.08
7824;BME280;3957;48.61947800;9.05303100;2022-09-09T08:40:28;95869.84;;;17.71;77.49
7824;BME280;3957;48.61947800;9.05303100;2022-09-09T08:42:08;95862.81;;;17.47;78.27
7824;BME280;3957;48.61947800;9.05303100;2022-09-09T08:43:35;95869.09;;;17.31;79.76
7824;BME280;3957;48.61947800;9.05303100;2022-09-09T08:46:51;95879.31;;;18.28;76.72
7824;BME280;3957;48.61947800;9.05303100;2022-09-09T08:48:39;95889.06;;;18.61;73.74
7824;BME280;3957;48.61947800;9.05303100;2022-09-09T08:50:29;95886.38;;;18.99;70.82
7824;BME280;3957;48.61947800;9.05303100;2022-09-09T08:51:56;95885.78;;;19.45;69.60
7824;BME280;3957;48.61947800;9.05303100;2022-09-09T08:53:24;95878.19;;;19.47;67.82
7824;BME280;3957;48.61947800;9.05303100;2022-09-09T08:54:49;95877.13;;;19.53;70.04
7824;BME280;3957;48.61947800;9.05303100;2022-09-09T08:56:14;95872.09;;;19.93;70.60
7824;BME280;3957;48.61947800;9.05303100;2022-09-09T08:57:40;95863.66;;;19.84;66.87
7824;BME280;3957;48.61947800;9.05303100;2022-09-09T08:59:02;95873.75;;;20.14;67.65
7824;BME280;3957;48.61947800;9.05303100;2022-09-09T09:00:40;95868.03;;;20.00;65.67
7824;BME280;3957;48.61947800;9.05303100;2022-09-09T09:04:27;95859.66;;;20.33;66.27
7824;BME280;3957;48.61947800;9.05303100;2022-09-09T09:10:48;95860.19;;;20.55;62.50
7824;BME280;3957;48.61947800;9.05303100;2022-09-09T09:12:25;95865.78;;;21.21;62.44
7824;BME280;3957;48.61947800;9.05303100;2022-09-09T09:13:57;95860.41;;;21.05;59.21
7824;BME280;3957;48.61947800;9.05303100;2022-09-09T09:15:26;95862.09;;;20.55;61.32
7824;BME280;3957;48.61947800;9.05303100;2022-09-09T09:17:04;95866.19;;;20.52;62.87
7824;BME280;3957;48.61947800;9.05303100;2022-09-09T09:18:27;95853.41;;;20.43;64.02
7824;BME280;3957;48.61947800;9.05303100;2022-09-09T09:19:49;95855.56;;;20.41;63.37
7824;BME280;3957;48.61947800;9.05303100;2022-09-09T09:23:25;95845.25;;;20.37;62.22
7824;BME280;3957;48.61947800;9.05303100;2022-09-09T09:25:03;95852.31;;;20.59;64.09
7824;BME280;3957;48.61947800;9.05303100;2022-09-09T09:26:32;95853.38;;;20.63;64.11
7824;BME280;3957;48.61947800;9.05303100;2022-09-09T09:29:25;95844.41;;;20.88;62.53
7824;BME280;3957;48.61947800;9.05303100;2022-09-09T09:31:04;95845.75;;;20.65;62.33
7824;BME280;3957;48.61947800;9.05303100;2022-09-09T09:32:32;95839.22;;;20.87;62.48
7824;BME280;3957;48.61947800;9.05303100;2022-09-09T09:33:55;95835.63;;;21.12;61.51
7824;BME280;3957;48.61947800;9.05303100;2022-09-09T09:35:19;95835.09;;;21.70;61.74
7824;BME280;3957;48.61947800;9.05303100;2022-09-09T09:36:45;95823.97;;;22.06;60.98
7824;BME280;3957;48.61947800;9.05303100;2022-09-09T09:38:17;95824.44;;;22.19;59.60
7824;BME280;3957;48.61947800;9.05303100;2022-09-09T09:39:39;95829.38;;;22.17;57.56
7824;BME280;3957;48.61947800;9.05303100;2022-09-09T09:41:01;95822.75;;;21.88;57.61
7824;BME280;3957;48.61947800;9.05303100;2022-09-09T09:42:24;95827.72;;;21.76;56.18
7824;BME280;3957;48.61947800;9.05303100;2022-09-09T09:43:54;95831.66;;;21.54;55.51
7824;BME280;3957;48.61947800;9.05303100;2022-09-09T09:46:44;95823.09;;;21.16;54.67
7824;BME280;3957;48.61947800;9.05303100;2022-09-09T09:48:11;95818.78;;;21.05;57.89
7824;BME280;3957;48.61947800;9.05303100;2022-09-09T09:49:34;95822.38;;;20.85;58.12
7824;BME280;3957;48.61947800;9.05303100;2022-09-09T09:51:13;95825.38;;;20.83;58.11
7824;BME280;3957;48.61947800;9.05303100;2022-09-09T09:52:37;95836.81;;;20.34;59.48
7824;BME280;3957;48.61947800;9.05303100;2022-09-09T09:54:23;95830.84;;;20.11;60.78
7824;BME280;3957;48.61947800;9.05303100;2022-09-09T09:55:57;95825.69;;;20.51;60.26
7824;BME280;3957;48.61947800;9.05303100;2022-09-09T09:57:26;95821.03;;;20.56;60.61
7824;BME280;3957;48.61947800;9.05303100;2022-09-09T09:58:51;95823.44;;;20.89;61.35
7824;BME280;3957;48.61947800;9.05303100;2022-09-09T10:00:21;95817.19;;;20.94;60.28
7824;BME280;3957;48.61947800;9.05303100;2022-09-09T10:01:53;95819.94;;;20.58;58.49
7824;BME280;3957;48.61947800;9.05303100;2022-09-09T10:03:24;95815.34;;;20.32;61.04
7824;BME280;3957;48.61947800;9.05303100;2022-09-09T10:04:47;95813.19;;;20.34;61.72
7824;BME280;3957;48.61947800;9.05303100;2022-09-09T10:06:08;95810.75;;;19.92;63.33
7824;BME280;3957;48.61947800;9.05303100;2022-09-09T10:07:29;95810.47;;;19.93;61.66
7824;BME280;3957;48.61947800;9.05303100;2022-09-09T10:08:49;95805.84;;;19.83;62.73
7824;BME280;3957;48.61947800;9.05303100;2022-09-09T10:10:21;95807.75;;;19.93;62.02
7824;BME280;3957;48.61947800;9.05303100;2022-09-09T10:15:07;95812.56;;;19.76;59.33
7824;BME280;3957;48.61947800;9.05303100;2022-09-09T10:16:45;95810.72;;;19.81;59.10
7824;BME280;3957;48.61947800;9.05303100;2022-09-09T10:23:21;95794.38;;;20.64;52.94
7824;BME280;3957;48.61947800;9.05303100;2022-09-09T10:25:01;95804.44;;;20.79;51.22
7824;BME280;3957;48.61947800;9.05303100;2022-09-09T10:28:55;95781.19;;;21.12;48.77
7824;BME280;3957;48.61947800;9.05303100;2022-09-09T10:30:22;95787.50;;;21.08;49.49
7824;BME280;3957;48.61947800;9.05303100;2022-09-09T10:33:53;95793.22;;;21.06;46.45
7824;BME280;3957;48.61947800;9.05303100;2022-09-09T10:36:47;95801.59;;;21.15;47.58
7824;BME280;3957;48.61947800;9.05303100;2022-09-09T10:38:15;95793.00;;;21.47;45.48
7824;BME280;3957;48.61947800;9.05303100;2022-09-09T10:39:38;95795.81;;;21.32;47.78
7824;BME280;3957;48.61947800;9.05303100;2022-09-09T10:41:18;95795.28;;;21.30;47.55
7824;BME280;3957;48.61947800;9.05303100;2022-09-09T10:42:41;95796.06;;;21.35;45.97
7824;BME280;3957;48.61947800;9.05303100;2022-09-09T10:51:01;95792.53;;;19.82;51.40
7824;BME280;3957;48.61947800;9.05303100;2022-09-09T10:52:34;95792.53;;;19.87;50.30
7824;BME280;3957;48.61947800;9.05303100;2022-09-09T10:55:55;95779.75;;;20.34;49.92
7824;BME280;3957;48.61947800;9.05303100;2022-09-09T10:59:27;95777.03;;;19.93;52.33
7824;BME280;3957;48.61947800;9.05303100;2022-09-09T11:00:56;95801.44;;;19.77;53.33
7824;BME280;3957;48.61947800;9.05303100;2022-09-09T11:02:28;95811.59;;;19.13;59.13
7824;BME280;3957;48.61947800;9.05303100;2022-09-09T11:03:55;95825.69;;;18.67;64.47
7824;BME280;3957;48.61947800;9.05303100;2022-09-09T11:05:32;95831.66;;;18.64;67.62
7824;BME280;3957;48.61947800;9.05303100;2022-09-09T11:06:56;95834.09;;;18.28;69.14
7824;BME280;3957;48.61947800;9.05303100;2022-09-09T11:08:29;95840.06;;;17.98;67.19
7824;BME280;3957;48.61947800;9.05303100;2022-09-09T11:09:53;95836.44;;;17.87;65.47
7824;BME280;3957;48.61947800;9.05303100;2022-09-09T11:11:25;95835.59;;;17.59;66.65
7824;BME280;3957;48.61947800;9.05303100;2022-09-09T11:12:50;95841.28;;;17.36;69.24
7824;BME280;3957;48.61947800;9.05303100;2022-09-09T11:14:28;95850.53;;;17.40;67.11
7824;BME280;3957;48.61947800;9.05303100;2022-09-09T11:15:58;95854.34;;;17.66;64.36
7824;BME280;3957;48.61947800;9.05303100;2022-09-09T11:17:26;95864.00;;;17.57;64.73
7824;BME280;3957;48.61947800;9.05303100;2022-09-09T11:18:56;95865.00;;;17.50;66.08
7824;BME280;3957;48.61947800;9.05303100;2022-09-09T11:20:19;95864.81;;;17.57;65.77
7824;BME280;3957;48.61947800;9.05303100;2022-09-09T11:21:47;95854.84;;;17.63;67.07